Raymondville, Missouri
Current Conditions -  °F | °C
As of 4:53 PM on Thursday 23 Oct 2014 (Local Time) from KUNO Reporting Station
Broken Clouds Broken Clouds  
Wind Chill: 58°   Ceiling: 4400
Heat Index: 58°   Visibility: 10mi
Dew Point: 45°   Wind: 5mph
Humidity: 62%   Direction: 210°SSW
Pressure: 30.15"   Gusts: NA
Location:  37.34°N, 91.83°W
Report Text: KUNO 232153Z AUTO 21004KT 10SM BKN044 14/07 A3015 RMK AO2 SLP211 T01440072
Loading
Personal Weather Stations






























Interactive Weather Map
Tropical Storm Tracking
New forecast layout! Learn more

10-Day Weather Forecast

Advertisements
Track Severe Weather on mobile